createdAt,value
2018-09-14T00:03:35.220Z,8.4
2018-09-14T00:08:37.618Z,8.3
2018-09-14T00:13:39.850Z,8.3
2018-09-14T00:18:42.267Z,8.2
2018-09-14T00:23:44.552Z,8.2
2018-09-14T00:28:46.757Z,8.1
2018-09-14T00:33:49.008Z,8.1
2018-09-14T00:38:51.501Z,8
2018-09-14T00:43:53.585Z,8
2018-09-14T00:48:55.919Z,7.9
2018-09-14T00:53:58.283Z,7.9
2018-09-14T00:59:00.453Z,7.8
2018-09-14T01:04:02.903Z,7.8
2018-09-14T01:09:05.197Z,7.7
2018-09-14T01:14:07.433Z,7.7
2018-09-14T01:19:09.632Z,7.6
2018-09-14T01:24:12.004Z,7.7
2018-09-14T01:29:14.320Z,7.6
2018-09-14T01:34:16.621Z,7.5
2018-09-14T01:39:18.921Z,7.5
2018-09-14T01:44:21.255Z,7.5
2018-09-14T01:49:23.433Z,7.5
2018-09-14T01:54:25.811Z,7.4
2018-09-14T01:59:28.077Z,7.4
2018-09-14T02:04:30.361Z,7.4
2018-09-14T02:09:33.647Z,7.4
2018-09-14T02:14:35.064Z,7.3
2018-09-14T02:19:37.181Z,7.3
2018-09-14T02:24:39.531Z,7.2
2018-09-14T02:29:41.835Z,7.2
2018-09-14T02:34:44.160Z,7.2
2018-09-14T02:39:46.344Z,7.1
2018-09-14T02:44:48.835Z,7
2018-09-14T02:49:50.982Z,7
2018-09-14T02:54:53.274Z,6.9
2018-09-14T02:59:55.811Z,6.9
2018-09-14T03:04:57.980Z,6.8
2018-09-14T03:10:00.092Z,6.8
2018-09-14T03:15:02.488Z,6.8
2018-09-14T03:20:04.876Z,6.7
2018-09-14T03:25:07.031Z,6.7
2018-09-14T03:30:09.288Z,6.6
2018-09-14T03:35:11.685Z,6.6
2018-09-14T03:40:13.977Z,6.6
2018-09-14T03:45:16.137Z,6.5
2018-09-14T03:50:18.582Z,6.5
2018-09-14T03:55:20.804Z,6.5
2018-09-14T04:00:23.115Z,6.5
2018-09-14T04:05:25.600Z,6.5
2018-09-14T04:10:27.640Z,6.5
2018-09-14T04:15:29.951Z,6.5
2018-09-14T04:20:32.193Z,6.4
2018-09-14T04:25:34.548Z,6.4
2018-09-14T04:30:36.842Z,6.4
2018-09-14T04:35:39.062Z,6.4
2018-09-14T04:40:41.504Z,6.3
2018-09-14T04:45:43.673Z,6.3
2018-09-14T04:50:45.966Z,6.3
2018-09-14T04:55:48.431Z,6.2
2018-09-14T05:00:50.660Z,6.2
2018-09-14T05:05:52.856Z,6.1
2018-09-14T05:10:55.240Z,6
2018-09-14T05:15:57.420Z,6
2018-09-14T05:20:59.872Z,6
2018-09-14T05:31:04.417Z,5.9
2018-09-14T05:36:06.702Z,5.9
2018-09-14T05:41:09.022Z,5.9
2018-09-14T05:46:11.229Z,6
2018-09-14T05:51:13.586Z,6
2018-09-14T05:56:15.750Z,6.1
2018-09-14T06:01:18.069Z,6.2
2018-09-14T06:06:21.574Z,6.3
2018-09-14T06:11:22.917Z,6.5
2018-09-14T06:16:25.195Z,6.6
2018-09-14T06:21:27.347Z,6.8
2018-09-14T06:26:29.535Z,7.2
2018-09-14T06:31:31.989Z,7.6
2018-09-14T06:36:34.100Z,8.1
2018-09-14T06:41:36.443Z,8.3
2018-09-14T06:46:38.813Z,8.6
2018-09-14T06:51:41.048Z,8.9
2018-09-14T06:56:43.398Z,9.3
2018-09-14T07:01:45.918Z,9.7
2018-09-14T07:06:48.083Z,10.2
2018-09-14T07:11:50.201Z,10.6
2018-09-14T07:16:52.524Z,11.3
2018-09-14T07:21:56.686Z,11.8
2018-09-14T07:26:57.134Z,12.3
2018-09-14T07:31:59.401Z,12.5
2018-09-14T07:37:01.755Z,12.8
2018-09-14T07:42:03.990Z,13.1
2018-09-14T07:47:06.255Z,13.2
2018-09-14T07:52:08.653Z,13.5
2018-09-14T07:57:10.909Z,13.6
2018-09-14T08:02:13.243Z,13.7
2018-09-14T08:07:15.466Z,14
2018-09-14T08:12:17.689Z,14.1
2018-09-14T08:17:19.999Z,14.4
2018-09-14T08:22:22.411Z,14.7
2018-09-14T08:27:24.708Z,14.9
2018-09-14T08:32:26.973Z,15.3
2018-09-14T08:37:29.252Z,15.7
2018-09-14T08:42:31.520Z,16
2018-09-14T08:47:33.891Z,16.4
2018-09-14T08:52:36.130Z,16.799999
2018-09-14T08:57:38.369Z,17.1
2018-09-14T09:02:40.762Z,17.5
2018-09-14T09:07:44.443Z,18
2018-09-14T09:12:45.428Z,18.299999
2018-09-14T09:17:47.689Z,18.6
2018-09-14T09:22:49.994Z,18.9
2018-09-14T09:27:52.252Z,19.200001
2018-09-14T09:32:54.483Z,19.4
2018-09-14T09:37:56.794Z,19.700001
2018-09-14T09:42:59.115Z,20.200001
2018-09-14T09:48:01.412Z,20.6
2018-09-14T09:53:03.668Z,20.9
2018-09-14T09:58:06.014Z,21
2018-09-14T10:03:08.227Z,21.1
2018-09-14T10:08:10.553Z,21.5
2018-09-14T10:13:12.748Z,21.9
2018-09-14T10:18:15.119Z,22.1
2018-09-14T10:23:17.595Z,22.4
2018-09-14T10:28:19.770Z,21.6
2018-09-14T10:33:22.113Z,21.9
2018-09-14T10:38:24.337Z,21.9
2018-09-14T10:43:26.637Z,21.200001
2018-09-14T10:48:28.988Z,21.200001
2018-09-14T10:53:31.134Z,22.1
2018-09-14T10:58:33.524Z,21.700001
2018-09-14T11:03:35.778Z,21.200001
2018-09-14T11:08:38.052Z,20.5
2018-09-14T11:13:40.523Z,19.799999
2018-09-14T11:18:42.854Z,19.5
2018-09-14T11:23:44.976Z,19.4
2018-09-14T11:28:47.177Z,19.4
2018-09-14T11:33:49.550Z,19.700001
2018-09-14T11:38:51.949Z,19.6
2018-09-14T11:43:54.163Z,19.5
2018-09-14T11:48:56.338Z,19.299999
2018-09-14T11:53:58.749Z,19.299999
2018-09-14T11:59:01.036Z,19.299999
2018-09-14T12:04:03.333Z,19.200001
2018-09-14T12:09:05.613Z,19.200001
2018-09-14T12:14:07.969Z,19.200001
2018-09-14T12:19:11.628Z,19.299999
2018-09-14T12:24:12.592Z,19.799999
2018-09-14T12:29:14.831Z,20.1
2018-09-14T12:34:17.163Z,19.799999
2018-09-14T12:39:19.408Z,19.5
2018-09-14T12:49:24.063Z,20.1
2018-09-14T12:54:26.218Z,19.9
2018-09-14T12:59:28.503Z,19.6
2018-09-14T13:04:30.874Z,19.299999
2018-09-14T13:09:33.058Z,19.1
2018-09-14T13:14:35.498Z,19.5
2018-09-14T13:19:37.845Z,20
2018-09-14T13:24:41.681Z,21
2018-09-14T13:29:42.311Z,21.299999
2018-09-14T13:34:44.570Z,21.700001
2018-09-14T13:39:46.848Z,22
2018-09-14T13:44:49.236Z,21.6
2018-09-14T13:49:51.726Z,21.200001
2018-09-14T13:54:53.795Z,20.799999
2018-09-14T13:59:57.380Z,20.200001
2018-09-14T14:04:58.418Z,19.9
2018-09-14T14:10:00.709Z,19.6
2018-09-14T14:15:02.985Z,19.4
2018-09-14T14:20:05.234Z,19.200001
2018-09-14T14:25:07.470Z,19
2018-09-14T14:30:11.300Z,19
2018-09-14T14:35:12.089Z,19.200001
2018-09-14T14:40:14.483Z,19.4
2018-09-14T14:45:16.828Z,19.6
2018-09-14T14:50:19.025Z,19.700001
2018-09-14T14:55:21.251Z,19.9
2018-09-14T15:00:23.663Z,19.9
2018-09-14T15:05:25.943Z,19.799999
2018-09-14T15:10:28.162Z,19.6
2018-09-14T15:15:30.480Z,19.4
2018-09-14T15:20:32.762Z,19.5
2018-09-14T15:25:35.159Z,19.5
2018-09-14T15:30:37.416Z,19.200001
2018-09-14T15:35:39.714Z,19
2018-09-14T15:40:42.043Z,18.9
2018-09-14T15:45:44.262Z,18.9
2018-09-14T15:50:46.596Z,18.700001
2018-09-14T15:55:48.839Z,18.6
2018-09-14T16:00:51.041Z,18.5
2018-09-14T16:05:53.497Z,18.4
2018-09-14T16:10:55.864Z,18.200001
2018-09-14T16:15:58.087Z,18.299999
2018-09-14T16:21:00.385Z,19.1
2018-09-14T16:26:02.667Z,19.1
2018-09-14T16:31:04.918Z,18.5
2018-09-14T16:36:07.263Z,18.200001
2018-09-14T16:41:09.608Z,17.799999
2018-09-14T16:46:11.716Z,17.700001
2018-09-14T16:51:14.044Z,17.6
2018-09-14T16:56:16.380Z,17.5
2018-09-14T17:01:18.617Z,17.5
2018-09-14T17:06:21.009Z,17.4
2018-09-14T17:11:23.251Z,17.299999
2018-09-14T17:16:25.543Z,17.200001
2018-09-14T17:21:27.821Z,17.200001
2018-09-14T17:26:30.192Z,17.200001
2018-09-14T17:31:32.361Z,17.200001
2018-09-14T17:36:34.727Z,17.200001
2018-09-14T17:41:37.061Z,17.1
2018-09-14T17:46:39.367Z,17
2018-09-14T17:51:41.613Z,16.9
2018-09-14T17:56:44.046Z,16.799999
2018-09-14T18:01:46.231Z,16.6
2018-09-14T18:06:48.472Z,16.5
2018-09-14T18:11:50.744Z,16.4
2018-09-14T18:16:53.154Z,16.4
2018-09-14T18:21:55.512Z,16.299999
2018-09-14T18:26:57.782Z,16.200001
2018-09-14T18:32:00.067Z,16.1
2018-09-14T18:37:02.380Z,16
2018-09-14T18:42:05.646Z,16
2018-09-14T18:47:06.910Z,16
2018-09-14T18:52:09.056Z,15.9
2018-09-14T18:57:11.448Z,15.9
2018-09-14T19:02:13.762Z,15.8
2018-09-14T19:07:16.036Z,15.8
2018-09-14T19:12:18.730Z,15.9
2018-09-14T19:17:20.724Z,15.8
2018-09-14T19:22:22.970Z,15.7
2018-09-14T19:27:25.202Z,15.7
2018-09-14T19:32:27.527Z,15.6
2018-09-14T19:37:29.867Z,15.6
2018-09-14T19:47:34.291Z,15.3
2018-09-14T19:52:36.671Z,15.2
2018-09-14T19:57:38.959Z,15.1
2018-09-14T20:02:41.275Z,15
2018-09-14T20:07:43.538Z,14.9
2018-09-14T20:12:45.822Z,14.7
2018-09-14T20:17:48.203Z,14.6
2018-09-14T20:22:50.485Z,14.5
2018-09-14T20:27:52.780Z,14.5
2018-09-14T20:32:55.106Z,14.4
2018-09-14T20:37:57.397Z,14.3
2018-09-14T20:42:59.710Z,14.2
2018-09-14T20:48:01.878Z,14.1
2018-09-14T20:53:04.184Z,14.1
2018-09-14T20:58:06.607Z,13.9
2018-09-14T21:03:08.771Z,13.8
2018-09-14T21:08:11.140Z,13.7
2018-09-14T21:13:13.297Z,13.6
2018-09-14T21:18:15.676Z,13.6
2018-09-14T21:23:18.062Z,13.5
2018-09-14T21:28:20.201Z,13.5
2018-09-14T21:33:22.538Z,13.6
2018-09-14T21:38:24.951Z,13.6
2018-09-14T21:43:27.187Z,13.6
2018-09-14T21:48:29.387Z,13.6
2018-09-14T21:53:31.801Z,13.5
2018-09-14T21:58:34.136Z,13.6
2018-09-14T22:03:36.238Z,13.6
2018-09-14T22:08:38.615Z,13.6
2018-09-14T22:13:40.979Z,13.5
2018-09-14T22:18:43.254Z,13.6
2018-09-14T22:28:47.856Z,13.5
2018-09-14T22:33:50.167Z,13.5
2018-09-14T22:38:52.273Z,13.5
2018-09-14T22:43:54.695Z,13.4
2018-09-14T22:48:57.175Z,13.3
2018-09-14T22:53:59.323Z,13.3
2018-09-14T22:59:01.571Z,13.3
2018-09-14T23:04:03.878Z,13.3
2018-09-14T23:09:06.075Z,13.3
2018-09-14T23:14:08.410Z,13.3
2018-09-14T23:19:10.762Z,13.3
2018-09-14T23:24:13.048Z,13.3
2018-09-14T23:29:15.283Z,13.4
2018-09-14T23:34:17.525Z,13.4
2018-09-14T23:39:19.968Z,13.4
2018-09-14T23:44:22.122Z,13.4
2018-09-14T23:49:24.482Z,13.4
2018-09-14T23:54:26.863Z,13.4
2018-09-14T23:59:29.092Z,13.4
